Time;durP1;ratioP1;P1;durP2;ratioP2;P2;SDS_P1;SDS_P2;PMS_P1;PMS_P2;Temp;Humidity;BMP_temperature;BMP_pressure;BME280_temperature;BME280_humidity;BME280_pressure;Samples;Min_cycle;Max_cycle;Signal;HPM_P1;HPM_P2
2022/08/07 00:01:26;;;;;;;4.13;3.47;;;15.20;99.90;;;;;;5014261;28;20236;-64
2022/08/07 00:03:51;;;;;;;6.50;4.23;;;15.20;99.90;;;;;;5023419;28;20650;-64
2022/08/07 00:06:17;;;;;;;5.97;3.87;;;15.20;99.90;;;;;;5017329;28;20195;-64
2022/08/07 00:08:42;;;;;;;5.07;4.10;;;15.10;99.90;;;;;;5033293;28;20279;-64
2022/08/07 00:11:08;;;;;;;4.53;4.10;;;15.10;99.90;;;;;;5013094;28;20663;-64
2022/08/07 00:13:36;;;;;;;3.97;3.67;;;15.10;99.90;;;;;;5039085;28;20285;-64
2022/08/07 00:16:02;;;;;;;4.13;3.60;;;15.10;99.90;;;;;;5025684;28;20195;-64
2022/08/07 00:18:28;;;;;;;4.30;3.33;;;15.00;99.90;;;;;;4967756;28;20207;-65
2022/08/07 00:20:56;;;;;;;4.80;4.40;;;15.00;99.90;;;;;;5014806;28;20672;-63
2022/08/07 00:23:22;;;;;;;4.90;3.63;;;15.00;99.90;;;;;;5027550;28;20395;-62
2022/08/07 00:25:49;;;;;;;4.57;3.40;;;15.00;99.90;;;;;;5013870;28;20711;-63
2022/08/07 00:28:14;;;;;;;4.03;3.63;;;15.00;99.90;;;;;;5030465;28;20831;-62
2022/08/07 00:30:39;;;;;;;4.33;3.93;;;14.90;99.90;;;;;;5014307;28;20194;-63
2022/08/07 00:33:05;;;;;;;4.17;3.63;;;14.90;99.90;;;;;;5027336;28;20240;-63
2022/08/07 00:35:33;;;;;;;4.23;3.70;;;14.90;99.90;;;;;;5021000;28;20223;-63
2022/08/07 00:37:59;;;;;;;4.80;3.73;;;14.90;99.90;;;;;;5032443;28;20199;-63
2022/08/07 00:40:25;;;;;;;3.30;3.03;;;14.80;99.90;;;;;;5022193;28;20198;-63
2022/08/07 00:42:50;;;;;;;4.13;3.50;;;14.80;99.90;;;;;;5041954;28;20223;-63
2022/08/07 00:45:16;;;;;;;4.77;3.60;;;14.70;99.90;;;;;;5017616;28;20608;-63
2022/08/07 00:47:41;;;;;;;3.63;3.30;;;14.70;99.90;;;;;;5030373;28;20196;-63
2022/08/07 00:50:08;;;;;;;4.97;3.77;;;14.70;99.90;;;;;;5012830;28;20291;-63
2022/08/07 00:52:33;;;;;;;4.77;3.53;;;14.70;99.90;;;;;;5027456;28;20697;-63
2022/08/07 00:54:59;;;;;;;3.93;3.63;;;14.60;99.90;;;;;;5018196;28;20286;-63
2022/08/07 00:57:26;;;;;;;4.73;3.30;;;14.60;99.90;;;;;;5029456;28;20201;-63
2022/08/07 00:59:52;;;;;;;4.07;3.50;;;14.60;99.90;;;;;;5021773;28;20277;-63
2022/08/07 01:02:18;;;;;;;5.03;3.43;;;14.60;99.90;;;;;;5026063;28;20221;-63
2022/08/07 01:04:44;;;;;;;9.03;4.40;;;14.50;99.90;;;;;;5021186;28;20200;-63
2022/08/07 01:07:10;;;;;;;3.33;3.03;;;14.50;99.90;;;;;;5043628;28;20186;-64
2022/08/07 01:09:35;;;;;;;3.53;3.13;;;14.50;99.90;;;;;;5017473;28;20667;-62
2022/08/07 01:12:01;;;;;;;4.20;2.97;;;14.40;99.90;;;;;;5031917;28;20242;-62
2022/08/07 01:14:27;;;;;;;4.17;3.40;;;14.40;99.90;;;;;;5025718;28;20246;-63
2022/08/07 01:16:53;;;;;;;4.13;3.30;;;14.50;99.90;;;;;;5018469;28;20887;-63
2022/08/07 01:19:20;;;;;;;4.37;3.43;;;14.40;99.90;;;;;;5032992;28;20215;-63
2022/08/07 01:21:48;;;;;;;4.60;3.83;;;14.40;99.90;;;;;;5007397;28;20178;-63
2022/08/07 01:24:15;;;;;;;7.30;3.63;;;14.40;99.90;;;;;;5030070;28;20208;-62
2022/08/07 01:26:41;;;;;;;4.90;4.00;;;14.30;99.90;;;;;;5015025;28;20221;-63
2022/08/07 01:29:07;;;;;;;3.80;3.40;;;14.30;99.90;;;;;;5028886;28;20204;-63
2022/08/07 01:31:33;;;;;;;7.73;3.73;;;14.20;99.90;;;;;;5024244;28;20181;-63
2022/08/07 01:34:00;;;;;;;4.47;3.50;;;14.20;99.90;;;;;;5023133;28;20231;-63
2022/08/07 01:36:28;;;;;;;4.17;3.53;;;14.20;99.90;;;;;;5016465;28;20189;-63
2022/08/07 01:38:54;;;;;;;2.87;2.67;;;14.10;99.90;;;;;;5036484;28;20620;-64
2022/08/07 01:41:21;;;;;;;3.30;3.00;;;14.10;99.90;;;;;;5014223;28;20682;-65
2022/08/07 01:43:48;;;;;;;3.60;2.73;;;14.10;99.90;;;;;;5018029;28;20220;-63
2022/08/07 01:46:15;;;;;;;3.50;3.20;;;14.10;99.90;;;;;;5018947;28;20224;-64
2022/08/07 01:48:42;;;;;;;3.37;3.07;;;14.10;99.90;;;;;;5029732;28;20287;-65
2022/08/07 01:51:12;;;;;;;3.93;3.17;;;14.10;99.90;;;;;;5014378;28;20233;-66
2022/08/07 01:53:41;;;;;;;3.07;2.43;;;14.10;99.90;;;;;;5043401;28;20279;-65
2022/08/07 01:56:15;;;;;;;4.03;3.63;;;14.10;99.90;;;;;;5015703;28;20196;-64
2022/08/07 01:58:48;;;;;;;5.43;3.73;;;14.00;99.90;;;;;;5022280;28;20286;-65
2022/08/07 02:01:22;;;;;;;3.33;3.03;;;14.00;99.90;;;;;;5016188;28;20243;-64
2022/08/07 02:03:55;;;;;;;3.67;3.37;;;14.00;99.90;;;;;;5031313;28;20234;-64
2022/08/07 02:06:22;;;;;;;6.80;3.93;;;14.00;99.90;;;;;;5007405;28;20263;-64
2022/08/07 02:08:48;;;;;;;4.30;3.60;;;14.00;99.90;;;;;;5043111;28;20195;-65
2022/08/07 02:11:14;;;;;;;3.70;3.40;;;14.00;99.90;;;;;;5022518;28;20196;-65
2022/08/07 02:13:41;;;;;;;5.40;3.63;;;13.90;99.90;;;;;;5037306;28;20226;-65
2022/08/07 02:16:09;;;;;;;4.87;3.90;;;13.90;99.90;;;;;;5015181;28;20418;-67
2022/08/07 02:18:37;;;;;;;6.57;4.10;;;13.90;99.90;;;;;;5046374;28;20617;-64
2022/08/07 02:21:06;;;;;;;4.33;3.70;;;13.90;99.90;;;;;;5013593;28;20207;-65
2022/08/07 02:23:38;;;;;;;3.87;3.53;;;13.80;99.90;;;;;;5035421;28;20219;-65
2022/08/07 02:26:05;;;;;;;3.40;3.10;;;13.80;99.90;;;;;;5006555;28;20204;-65
2022/08/07 02:28:33;;;;;;;3.80;3.40;;;13.70;99.90;;;;;;5030201;28;20217;-65
2022/08/07 02:31:01;;;;;;;4.33;3.67;;;13.70;99.90;;;;;;5007821;28;20957;-65
2022/08/07 02:33:28;;;;;;;3.97;3.27;;;13.70;99.90;;;;;;5028719;28;20319;-65
2022/08/07 02:35:54;;;;;;;4.93;3.77;;;13.70;99.90;;;;;;5017157;28;20201;-66
2022/08/07 02:38:25;;;;;;;3.57;3.23;;;13.70;99.90;;;;;;5026339;28;20301;-65
2022/08/07 02:40:52;;;;;;;5.97;3.33;;;13.60;99.90;;;;;;5014416;28;20616;-66
2022/08/07 02:43:18;;;;;;;4.07;3.70;;;13.60;99.90;;;;;;5027129;28;20270;-66
2022/08/07 02:45:46;;;;;;;5.20;3.83;;;13.60;99.90;;;;;;5019406;28;20207;-65
2022/08/07 02:48:12;;;;;;;4.87;4.07;;;13.50;99.90;;;;;;5028654;28;20204;-65
2022/08/07 02:50:42;;;;;;;3.97;3.50;;;13.50;99.90;;;;;;5013531;28;20674;-66
2022/08/07 02:53:14;;;;;;;3.43;3.20;;;13.50;99.90;;;;;;5030032;28;20565;-65
2022/08/07 02:55:45;;;;;;;4.00;3.40;;;13.50;99.90;;;;;;5010541;28;20196;-65
2022/08/07 02:58:13;;;;;;;3.90;3.37;;;13.50;99.90;;;;;;5010146;28;20203;-65
2022/08/07 03:00:40;;;;;;;3.77;3.47;;;13.50;99.90;;;;;;5020714;28;20235;-65
2022/08/07 03:03:08;;;;;;;3.60;3.30;;;13.40;99.90;;;;;;5033517;28;20227;-65
2022/08/07 03:05:35;;;;;;;3.10;2.83;;;13.40;99.90;;;;;;5014619;28;20238;-65
2022/08/07 03:08:03;;;;;;;6.97;3.40;;;13.40;99.90;;;;;;5030140;28;20199;-65
2022/08/07 03:10:28;;;;;;;4.20;3.73;;;13.30;99.90;;;;;;5013927;28;20238;-65
2022/08/07 03:12:55;;;;;;;3.97;3.37;;;13.30;99.90;;;;;;5039670;28;20203;-65
2022/08/07 03:15:21;;;;;;;5.27;3.40;;;13.30;99.90;;;;;;5023136;28;20235;-64
2022/08/07 03:17:47;;;;;;;3.97;3.00;;;13.30;99.90;;;;;;5017198;28;20251;-64
2022/08/07 03:20:13;;;;;;;2.93;2.70;;;13.20;99.90;;;;;;5029737;28;20207;-65
2022/08/07 03:22:41;;;;;;;6.00;3.43;;;13.30;99.90;;;;;;5028913;28;20686;-65
2022/08/07 03:25:07;;;;;;;4.30;3.70;;;13.20;99.90;;;;;;5024116;28;20227;-65
2022/08/07 03:27:33;;;;;;;3.83;2.93;;;13.20;99.90;;;;;;5033434;28;20207;-64
2022/08/07 03:29:59;;;;;;;4.40;3.10;;;13.20;99.90;;;;;;5028635;28;20208;-64
2022/08/07 03:32:29;;;;;;;4.13;2.60;;;13.20;99.90;;;;;;5020522;28;20200;-64
2022/08/07 03:34:59;;;;;;;3.97;2.80;;;13.20;99.90;;;;;;5033397;28;20218;-64
2022/08/07 03:37:26;;;;;;;3.93;3.53;;;13.20;99.90;;;;;;5019949;28;20654;-64
2022/08/07 03:39:52;;;;;;;4.07;3.07;;;13.10;99.90;;;;;;5028786;28;20335;-64
2022/08/07 03:42:18;;;;;;;3.93;3.37;;;13.10;99.90;;;;;;5014848;28;20298;-64
2022/08/07 03:44:44;;;;;;;6.17;3.03;;;13.10;99.90;;;;;;5029843;28;20334;-64
2022/08/07 03:47:12;;;;;;;7.00;3.40;;;13.10;99.90;;;;;;5009853;28;20188;-64
2022/08/07 03:49:38;;;;;;;4.07;3.07;;;13.10;99.90;;;;;;5032647;28;20589;-64
2022/08/07 03:52:05;;;;;;;3.40;3.10;;;13.00;99.90;;;;;;5020865;28;20538;-64
2022/08/07 03:54:30;;;;;;;3.00;2.80;;;13.00;99.90;;;;;;5019827;28;20189;-64
2022/08/07 03:56:56;;;;;;;2.50;2.30;;;13.00;99.90;;;;;;5020032;28;20190;-63
2022/08/07 03:59:24;;;;;;;3.40;2.90;;;12.90;99.90;;;;;;5021469;28;20679;-63
2022/08/07 04:01:53;;;;;;;4.03;3.40;;;12.90;99.90;;;;;;5015254;28;20180;-63
2022/08/07 04:04:18;;;;;;;9.57;4.30;;;13.00;99.90;;;;;;5026986;28;20634;-63
2022/08/07 04:06:46;;;;;;;4.47;3.40;;;13.00;99.90;;;;;;5013866;28;20772;-63
2022/08/07 04:09:13;;;;;;;5.87;2.97;;;13.00;99.90;;;;;;5025101;28;20199;-64
2022/08/07 04:11:39;;;;;;;4.70;3.47;;;13.10;99.90;;;;;;5009670;28;20184;-64
2022/08/07 04:14:05;;;;;;;8.07;3.07;;;13.10;99.90;;;;;;5025311;28;20192;-64
2022/08/07 04:16:31;;;;;;;5.17;3.37;;;13.00;99.90;;;;;;5011912;28;20561;-68
2022/08/07 04:18:56;;;;;;;3.83;2.87;;;13.00;99.90;;;;;;5023205;28;20556;-65
2022/08/07 04:21:22;;;;;;;4.77;3.33;;;13.00;99.90;;;;;;5023239;28;20210;-64
2022/08/07 04:23:48;;;;;;;3.70;3.40;;;13.10;99.90;;;;;;5036928;28;20577;-59
2022/08/07 04:26:14;;;;;;;3.50;3.07;;;13.10;99.90;;;;;;5014826;28;20300;-60
2022/08/07 04:28:41;;;;;;;4.27;3.23;;;13.20;99.90;;;;;;5040191;28;20297;-60
2022/08/07 04:31:07;;;;;;;3.17;2.87;;;13.30;99.90;;;;;;5014881;28;20311;-60
2022/08/07 04:33:34;;;;;;;4.60;3.00;;;13.30;99.90;;;;;;5024115;28;20722;-60
2022/08/07 04:36:00;;;;;;;6.07;3.13;;;13.40;99.90;;;;;;5014717;28;20703;-59
2022/08/07 04:38:26;;;;;;;3.03;2.73;;;13.40;99.90;;;;;;5038271;28;20202;-59
2022/08/07 04:40:52;;;;;;;3.77;2.90;;;13.50;99.90;;;;;;5014472;28;20564;-59
2022/08/07 04:43:27;;;;;;;4.90;3.17;;;13.50;99.90;;;;;;5042831;28;20352;-60
2022/08/07 04:46:13;;;;;;;3.37;2.60;;;13.50;99.90;;;;;;5011477;28;20201;-60
2022/08/07 04:48:59;;;;;;;7.23;3.87;;;13.60;99.90;;;;;;5016711;28;20201;-60
2022/08/07 04:51:47;;;;;;;3.17;2.87;;;13.70;99.90;;;;;;5009233;28;20706;-60
2022/08/07 04:54:34;;;;;;;5.47;3.17;;;13.80;99.90;;;;;;5016076;28;20218;-60
2022/08/07 04:57:20;;;;;;;5.60;2.97;;;13.80;99.90;;;;;;5015001;28;20191;-60
2022/08/07 04:59:54;;;;;;;4.87;4.37;;;13.90;99.90;;;;;;5011489;28;20253;-61
2022/08/07 05:02:28;;;;;;;2.70;2.50;;;13.90;99.90;;;;;;5017098;28;20208;-59
2022/08/07 05:05:17;;;;;;;5.43;2.60;;;14.00;99.90;;;;;;5003025;28;20931;-59
2022/08/07 05:07:52;;;;;;;3.87;2.37;;;14.10;99.90;;;;;;5021241;28;20231;-60
2022/08/07 05:10:29;;;;;;;2.83;2.50;;;14.20;99.90;;;;;;5002858;28;20284;-60
2022/08/07 05:13:02;;;;;;;3.40;2.67;;;14.30;99.90;;;;;;5013589;28;20202;-59
2022/08/07 05:15:34;;;;;;;6.30;3.40;;;14.30;99.90;;;;;;5035382;28;20249;-60
2022/08/07 05:18:17;;;;;;;3.77;2.73;;;14.40;99.90;;;;;;5022956;28;20656;-62
2022/08/07 05:20:48;;;;;;;2.67;2.47;;;14.50;99.90;;;;;;5015186;28;20205;-59
2022/08/07 05:23:19;;;;;;;3.37;2.67;;;14.60;99.90;;;;;;5044119;28;20768;-58
2022/08/07 05:25:45;;;;;;;3.63;2.33;;;14.70;99.90;;;;;;5007247;28;20212;-60
2022/08/07 05:28:13;;;;;;;3.00;2.80;;;14.70;99.90;;;;;;5035337;28;20226;-59
2022/08/07 05:30:41;;;;;;;3.77;3.17;;;14.80;99.90;;;;;;5036029;28;20205;-59
2022/08/07 05:33:07;;;;;;;2.83;2.50;;;14.90;99.90;;;;;;5037229;28;20227;-58
2022/08/07 05:35:35;;;;;;;3.00;2.50;;;15.00;99.90;;;;;;5037949;28;20214;-58
2022/08/07 05:38:02;;;;;;;3.07;2.13;;;15.10;99.90;;;;;;5039644;28;20634;-59
2022/08/07 05:40:28;;;;;;;2.77;2.53;;;15.20;99.90;;;;;;5035611;28;20339;-59
2022/08/07 05:42:54;;;;;;;3.80;2.90;;;15.40;99.90;;;;;;5037076;28;20266;-58
2022/08/07 05:45:20;;;;;;;6.13;3.03;;;15.50;99.90;;;;;;5035921;28;20647;-59
2022/08/07 05:47:46;;;;;;;3.83;3.37;;;15.60;99.90;;;;;;5036337;28;20215;-59
2022/08/07 05:50:13;;;;;;;6.30;4.20;;;15.70;99.90;;;;;;5035141;28;20654;-61
2022/08/07 05:52:38;;;;;;;3.33;3.00;;;15.80;99.90;;;;;;5037626;28;20303;-59
2022/08/07 05:55:05;;;;;;;3.23;2.93;;;16.00;99.90;;;;;;5035216;28;20928;-58
2022/08/07 05:57:32;;;;;;;3.57;2.90;;;16.10;99.90;;;;;;5030807;28;20206;-67
2022/08/07 05:59:59;;;;;;;3.03;2.13;;;16.30;99.90;;;;;;5027043;28;20589;-65
2022/08/07 06:02:26;;;;;;;3.17;2.87;;;16.40;99.90;;;;;;5017161;28;20272;-61
2022/08/07 06:04:56;;;;;;;3.73;2.00;;;16.60;99.90;;;;;;5038819;28;20216;-60
2022/08/07 06:07:22;;;;;;;2.83;2.17;;;16.70;99.90;;;;;;5021097;28;20185;-60
2022/08/07 06:09:48;;;;;;;2.90;2.23;;;16.90;99.90;;;;;;5024504;28;20722;-61
2022/08/07 06:12:14;;;;;;;2.13;1.90;;;17.10;99.90;;;;;;5007863;28;20273;-61
2022/08/07 06:14:39;;;;;;;1.93;1.80;;;17.20;99.90;;;;;;5039963;28;21042;-60
2022/08/07 06:17:05;;;;;;;2.97;1.77;;;17.40;99.20;;;;;;5019714;28;20194;-60
2022/08/07 06:19:32;;;;;;;2.70;1.63;;;17.50;98.30;;;;;;5036677;28;20261;-61
2022/08/07 06:21:57;;;;;;;3.77;1.80;;;17.70;97.90;;;;;;5016856;28;20607;-63
2022/08/07 06:24:23;;;;;;;2.77;2.10;;;17.80;97.20;;;;;;5031179;28;20691;-63
2022/08/07 06:26:48;;;;;;;2.63;1.70;;;17.90;96.40;;;;;;5015621;28;20247;-64
2022/08/07 06:29:14;;;;;;;3.90;1.97;;;18.00;96.30;;;;;;5024271;28;20282;-73
2022/08/07 06:31:39;;;;;;;1.97;1.80;;;18.10;95.80;;;;;;5013729;28;20314;-63
2022/08/07 06:34:05;;;;;;;3.97;2.13;;;18.30;98.80;;;;;;5019901;28;20198;-68
2022/08/07 06:36:30;;;;;;;2.23;2.13;;;18.30;99.90;;;;;;5010805;28;20683;-63
2022/08/07 06:38:56;;;;;;;3.27;2.00;;;18.30;99.90;;;;;;5034699;28;20203;-63
2022/08/07 06:41:30;;;;;;;5.63;2.30;;;18.40;99.90;;;;;;5020538;28;20600;-63
2022/08/07 06:43:57;;;;;;;2.73;2.00;;;18.50;99.90;;;;;;5013099;28;20227;-63
2022/08/07 06:46:23;;;;;;;2.37;2.03;;;18.50;98.20;;;;;;5016342;28;20207;-63
2022/08/07 06:48:49;;;;;;;3.33;1.87;;;18.60;99.90;;;;;;5040292;28;20620;-62
2022/08/07 06:51:22;;;;;;;2.17;1.53;;;18.60;99.90;;;;;;5020274;28;20741;-66
2022/08/07 06:53:49;;;;;;;2.00;1.80;;;18.70;99.90;;;;;;5015367;28;20252;-63
2022/08/07 06:56:16;;;;;;;1.73;1.63;;;18.80;99.90;;;;;;5017680;28;20692;-63
2022/08/07 06:58:44;;;;;;;4.63;2.37;;;18.90;99.90;;;;;;5037921;28;20198;-63
2022/08/07 07:01:12;;;;;;;2.20;2.00;;;19.00;99.90;;;;;;5030767;28;20710;-64
2022/08/07 07:03:39;;;;;;;2.83;2.63;;;19.00;99.90;;;;;;5037065;28;20280;-64
2022/08/07 07:06:07;;;;;;;2.70;2.07;;;19.10;99.90;;;;;;5030605;28;20234;-63
2022/08/07 07:08:33;;;;;;;2.20;1.80;;;19.20;99.80;;;;;;5035213;28;20230;-63
2022/08/07 07:11:00;;;;;;;3.57;1.27;;;19.30;99.90;;;;;;5029513;28;20693;-63
2022/08/07 07:13:43;;;;;;;1.67;1.57;;;19.40;99.90;;;;;;5034597;28;20230;-64
2022/08/07 07:16:16;;;;;;;3.67;1.70;;;19.40;95.90;;;;;;5022336;28;20218;-64
2022/08/07 07:18:47;;;;;;;1.60;1.50;;;19.60;99.90;;;;;;5014095;28;20191;-62
2022/08/07 07:21:22;;;;;;;3.00;2.00;;;19.60;97.90;;;;;;5004557;28;20211;-63
2022/08/07 07:23:48;;;;;;;2.77;1.40;;;19.70;99.90;;;;;;5022160;28;20218;-63
2022/08/07 07:26:17;;;;;;;2.00;1.73;;;19.70;99.30;;;;;;5018540;28;20236;-62
2022/08/07 07:28:58;;;;;;;6.00;2.20;;;19.60;96.20;;;;;;5037101;28;20194;-63
2022/08/07 07:31:40;;;;;;;3.67;1.63;;;19.70;99.90;;;;;;5012984;28;20210;-65
2022/08/07 07:34:09;;;;;;;1.63;1.53;;;19.70;97.80;;;;;;5012787;28;20242;-73
2022/08/07 07:36:37;;;;;;;2.77;2.53;;;19.70;96.20;;;;;;5011804;28;20196;-65
2022/08/07 07:39:05;;;;;;;1.80;1.50;;;19.80;97.40;;;;;;5044804;28;20202;-64
2022/08/07 07:41:33;;;;;;;3.10;1.97;;;19.90;97.20;;;;;;5012589;28;20211;-63
2022/08/07 07:44:00;;;;;;;2.70;1.50;;;19.90;90.20;;;;;;5037798;28;20701;-63
2022/08/07 07:46:29;;;;;;;1.77;1.67;;;20.00;91.00;;;;;;5017917;28;20279;-63
2022/08/07 07:48:56;;;;;;;1.90;1.80;;;20.10;94.70;;;;;;5034696;28;20602;-63
2022/08/07 07:51:23;;;;;;;3.27;2.10;;;20.20;91.50;;;;;;5017478;28;20214;-63
2022/08/07 07:53:50;;;;;;;2.70;2.33;;;20.20;94.10;;;;;;5039070;28;20769;-63
2022/08/07 07:56:16;;;;;;;2.33;1.90;;;20.30;95.30;;;;;;5020269;28;20253;-63
2022/08/07 07:58:43;;;;;;;4.10;2.10;;;20.40;97.40;;;;;;5040269;28;20196;-63
2022/08/07 08:01:10;;;;;;;2.23;2.00;;;20.40;98.50;;;;;;5040269;28;20234;-63
2022/08/07 08:03:40;;;;;;;1.87;1.77;;;20.50;97.20;;;;;;5036806;28;20586;-63
2022/08/07 08:06:06;;;;;;;4.60;2.80;;;20.50;94.30;;;;;;5031005;28;20191;-63
2022/08/07 08:08:34;;;;;;;2.13;2.00;;;20.50;93.50;;;;;;5028763;28;20195;-63
2022/08/07 08:11:00;;;;;;;1.87;1.70;;;20.60;88.60;;;;;;5027852;28;20203;-64
2022/08/07 08:13:27;;;;;;;7.53;2.10;;;20.70;96.00;;;;;;5025679;28;20287;-64
2022/08/07 08:15:54;;;;;;;1.90;1.53;;;20.80;91.30;;;;;;5021457;28;20207;-64
2022/08/07 08:18:23;;;;;;;1.83;1.30;;;20.90;92.90;;;;;;5030733;28;20211;-63
2022/08/07 08:20:49;;;;;;;4.10;1.50;;;20.80;90.40;;;;;;5017772;28;20204;-63
2022/08/07 08:28:52;;;;;;;2.80;1.57;;;20.90;97.50;;;;;;5018584;28;20226;-64
2022/08/07 08:31:28;;;;;;;3.10;1.50;;;20.90;92.50;;;;;;5024355;28;20223;-64
2022/08/07 08:33:56;;;;;;;3.03;1.40;;;20.90;91.20;;;;;;5009940;28;20188;-63
2022/08/07 08:36:25;;;;;;;1.33;1.23;;;21.00;90.50;;;;;;5016894;28;20208;-64
2022/08/07 08:38:54;;;;;;;2.43;1.40;;;21.10;91.80;;;;;;5043931;28;20195;-63
2022/08/07 08:41:30;;;;;;;3.40;1.70;;;21.20;91.10;;;;;;5013074;28;20210;-63
2022/08/07 08:44:24;;;;;;;3.37;1.90;;;21.20;90.00;;;;;;5010930;28;20214;-63
2022/08/07 08:47:15;;;;;;;1.73;1.63;;;21.30;93.00;;;;;;5012633;28;20226;-64
2022/08/07 08:50:02;;;;;;;4.20;1.87;;;21.30;90.70;;;;;;5035380;28;20319;-74
2022/08/07 08:52:37;;;;;;;3.23;1.83;;;21.40;91.70;;;;;;5015281;28;20210;-70
2022/08/07 08:55:13;;;;;;;4.30;1.70;;;21.50;90.70;;;;;;5025778;28;20195;-71
2022/08/07 08:57:48;;;;;;;2.00;1.60;;;21.70;96.40;;;;;;5017411;28;20250;-64
2022/08/07 09:00:14;;;;;;;3.30;1.48;;;21.80;90.40;;;;;;5021199;28;20225;-63
2022/08/07 09:02:59;;;;;;;1.87;1.60;;;22.00;95.50;;;;;;5016079;28;20235;-64
2022/08/07 09:05:51;;;;;;;1.80;1.45;;;22.20;86.40;;;;;;5022166;28;20187;-63
2022/08/07 09:08:33;;;;;;;1.15;1.08;;;22.50;93.30;;;;;;5020726;28;20589;-64
2022/08/07 09:11:13;;;;;;;3.08;1.63;;;22.70;93.80;;;;;;5035413;28;20199;-64
2022/08/07 09:14:02;;;;;;;2.33;1.33;;;22.80;93.60;;;;;;5027869;28;20218;-64
2022/08/07 09:16:45;;;;;;;3.45;1.25;;;22.60;88.30;;;;;;5023227;28;20207;-64
2022/08/07 09:19:22;;;;;;;4.00;1.60;;;22.50;78.60;;;;;;5011213;28;20370;-64
2022/08/07 09:22:13;;;;;;;2.55;1.25;;;22.30;75.70;;;;;;5014266;28;20207;-64
2022/08/07 09:24:38;;;;;;;1.20;1.20;;;22.10;74.70;;;;;;5020191;28;20284;-64
2022/08/07 09:27:26;;;;;;;1.83;1.50;;;22.10;71.10;;;;;;5022349;28;20678;-64
2022/08/07 09:29:51;;;;;;;2.05;1.42;;;22.10;87.70;;;;;;5025646;28;20869;-64
2022/08/07 09:32:41;;;;;;;2.17;1.30;;;22.30;83.20;;;;;;5011358;28;20686;-65
2022/08/07 09:35:12;;;;;;;4.63;1.88;;;22.40;76.90;;;;;;5015569;28;20187;-64
2022/08/07 09:38:00;;;;;;;1.30;1.20;;;22.60;75.70;;;;;;5016030;28;20255;-67
2022/08/07 09:40:48;;;;;;;2.30;1.57;;;22.80;71.90;;;;;;5013123;28;20183;-65
2022/08/07 09:43:32;;;;;;;1.70;1.50;;;22.80;67.30;;;;;;5012556;28;20593;-64
2022/08/07 09:46:28;;;;;;;2.13;1.33;;;22.90;67.50;;;;;;5038130;28;20718;-63
2022/08/07 09:49:05;;;;;;;2.75;1.33;;;23.20;75.40;;;;;;5013566;28;20188;-63
2022/08/07 09:52:14;;;;;;;2.28;1.17;;;23.40;67.30;;;;;;5016941;28;20251;-64
2022/08/07 09:54:54;;;;;;;1.85;1.55;;;23.80;74.20;;;;;;5007697;28;20188;-66
2022/08/07 09:57:44;;;;;;;2.70;1.40;;;24.10;70.50;;;;;;5010719;28;20244;-64
2022/08/07 10:00:12;;;;;;;1.40;1.30;;;24.30;67.50;;;;;;5021985;28;20463;-64
2022/08/07 10:02:52;;;;;;;1.65;1.25;;;24.50;67.60;;;;;;5038802;28;20221;-64
2022/08/07 10:05:25;;;;;;;2.38;1.70;;;24.70;65.90;;;;;;5026502;28;20553;-64
2022/08/07 10:08:33;;;;;;;1.98;1.38;;;25.00;60.10;;;;;;5011377;28;20191;-64
2022/08/07 10:11:10;;;;;;;1.58;1.40;;;25.10;56.90;;;;;;5014383;28;20737;-65
2022/08/07 10:14:07;;;;;;;0.98;0.98;;;25.20;57.20;;;;;;5013912;28;20202;-64
2022/08/07 10:17:02;;;;;;;1.25;1.20;;;25.20;59.90;;;;;;5007532;28;20257;-64
2022/08/07 10:20:05;;;;;;;3.22;1.23;;;25.30;56.30;;;;;;5038909;28;20290;-63
2022/08/07 10:22:47;;;;;;;2.88;1.55;;;25.00;54.50;;;;;;5008522;28;20219;-64
2022/08/07 10:25:39;;;;;;;2.67;1.55;;;24.40;55.00;;;;;;5014286;28;20243;-64
2022/08/07 10:28:40;;;;;;;1.60;1.50;;;24.10;55.20;;;;;;5032833;28;20186;-64
2022/08/07 10:31:48;;;;;;;1.40;1.30;;;23.60;54.70;;;;;;5018240;28;20673;-64
2022/08/07 10:34:36;;;;;;;2.83;1.58;;;23.30;57.60;;;;;;5010172;28;20201;-64
2022/08/07 10:37:39;;;;;;;3.88;1.63;;;23.20;62.20;;;;;;5031008;28;20656;-64
2022/08/07 10:40:16;;;;;;;2.15;1.95;;;23.20;58.00;;;;;;5034007;28;20193;-64
2022/08/07 10:42:57;;;;;;;2.70;1.25;;;23.20;56.60;;;;;;5028675;28;20214;-65
2022/08/07 10:45:38;;;;;;;2.35;1.88;;;23.20;57.90;;;;;;5029326;28;20624;-64
2022/08/07 10:48:16;;;;;;;2.65;1.35;;;23.30;57.80;;;;;;5032282;28;20179;-63
2022/08/07 10:50:51;;;;;;;1.70;1.40;;;23.30;56.80;;;;;;5031527;28;20310;-64
2022/08/07 10:53:59;;;;;;;1.60;1.50;;;23.40;56.40;;;;;;5031516;28;20180;-65
2022/08/07 10:56:56;;;;;;;1.73;1.23;;;23.50;59.60;;;;;;5028900;28;20601;-63
2022/08/07 10:59:56;;;;;;;1.60;1.50;;;24.00;62.60;;;;;;5035665;28;20246;-65
2022/08/07 11:02:38;;;;;;;5.00;1.88;;;24.40;58.30;;;;;;5033016;28;20216;-65
2022/08/07 11:05:17;;;;;;;11.07;8.80;;;24.60;57.00;;;;;;5032764;28;20240;-65
2022/08/07 11:08:27;;;;;;;3.88;2.58;;;24.70;55.60;;;;;;5033940;28;20226;-63
2022/08/07 11:11:06;;;;;;;2.55;2.00;;;24.90;55.80;;;;;;5013227;28;20201;-64
2022/08/07 11:13:48;;;;;;;2.05;1.85;;;25.00;57.20;;;;;;5010221;28;20192;-64
2022/08/07 11:16:26;;;;;;;2.65;1.50;;;25.10;56.70;;;;;;5008408;28;20412;-65
2022/08/07 11:19:03;;;;;;;1.60;1.50;;;25.10;54.40;;;;;;5030822;28;20675;-65
2022/08/07 11:21:34;;;;;;;2.35;1.40;;;25.30;53.10;;;;;;5019178;28;20263;-64
2022/08/07 11:24:10;;;;;;;1.75;1.27;;;26.00;55.30;;;;;;5018404;28;20553;-63
2022/08/07 11:26:49;;;;;;;1.05;1.02;;;26.70;53.90;;;;;;5018765;28;20210;-64
2022/08/07 11:29:35;;;;;;;2.13;1.17;;;27.30;49.50;;;;;;5039676;28;20990;-64
2022/08/07 11:32:09;;;;;;;1.48;1.23;;;27.80;47.30;;;;;;5029483;28;20198;-64
2022/08/07 11:34:48;;;;;;;2.55;1.38;;;28.20;47.40;;;;;;5029866;28;20246;-65
2022/08/07 11:37:32;;;;;;;2.05;1.30;;;28.30;48.90;;;;;;5032446;28;20241;-64
2022/08/07 11:40:21;;;;;;;1.13;1.13;;;28.70;46.00;;;;;;5034682;28;20183;-65
2022/08/07 11:43:07;;;;;;;2.80;1.67;;;29.20;45.20;;;;;;5033739;28;20515;-64
2022/08/07 11:45:52;;;;;;;2.35;1.40;;;29.50;43.60;;;;;;5020136;28;20226;-72
2022/08/07 11:48:40;;;;;;;4.13;1.42;;;29.80;45.10;;;;;;5004503;28;20958;-69
2022/08/07 11:51:22;;;;;;;1.98;1.35;;;30.20;44.50;;;;;;5010226;28;20600;-69
2022/08/07 11:54:17;;;;;;;2.22;1.38;;;30.90;42.30;;;;;;5011778;28;20184;-64
2022/08/07 11:57:07;;;;;;;2.03;1.48;;;30.90;40.40;;;;;;5012612;28;20218;-63
2022/08/07 11:59:59;;;;;;;1.88;1.23;;;31.00;40.20;;;;;;5011952;28;20227;-63
2022/08/07 12:02:33;;;;;;;3.72;1.77;;;30.80;38.00;;;;;;5013944;28;20702;-63
2022/08/07 12:05:23;;;;;;;1.75;1.50;;;30.80;39.30;;;;;;5028755;28;20206;-63
2022/08/07 12:07:55;;;;;;;8.55;2.85;;;31.10;38.90;;;;;;5014459;28;20204;-63
2022/08/07 12:10:36;;;;;;;1.48;1.15;;;31.60;38.80;;;;;;5004890;28;20195;-63
2022/08/07 12:13:12;;;;;;;1.85;1.60;;;32.00;37.70;;;;;;5006808;28;20294;-63
2022/08/07 12:15:43;;;;;;;2.33;1.40;;;32.70;36.40;;;;;;5028865;28;20206;-64
2022/08/07 12:18:20;;;;;;;3.58;1.50;;;33.50;35.40;;;;;;5010292;28;20497;-64
2022/08/07 12:21:10;;;;;;;3.55;1.42;;;34.40;34.30;;;;;;5021478;28;20251;-71
2022/08/07 12:23:43;;;;;;;3.78;2.70;;;35.00;33.80;;;;;;5018295;28;20215;-63
2022/08/07 12:26:17;;;;;;;2.70;1.95;;;35.60;33.10;;;;;;5034093;28;20224;-63
2022/08/07 12:29:04;;;;;;;8.10;3.22;;;35.60;31.90;;;;;;5011661;28;20226;-64
2022/08/07 12:31:48;;;;;;;3.38;2.03;;;35.40;32.80;;;;;;5023562;28;20207;-64
2022/08/07 12:34:16;;;;;;;2.10;1.70;;;35.90;30.30;;;;;;5031153;28;20658;-64
2022/08/07 12:36:44;;;;;;;1.20;1.20;;;35.70;30.20;;;;;;5032632;28;20674;-64
2022/08/07 12:39:12;;;;;;;1.58;1.48;;;34.60;30.50;;;;;;5031352;28;20180;-64
2022/08/07 12:41:39;;;;;;;3.38;1.45;;;33.90;31.40;;;;;;5033226;28;20870;-63
2022/08/07 12:44:09;;;;;;;1.85;1.63;;;32.60;32.10;;;;;;5032487;28;20199;-64
2022/08/07 12:46:54;;;;;;;7.18;6.50;;;31.40;33.40;;;;;;5031621;28;20345;-65
2022/08/07 12:49:50;;;;;;;3.42;1.27;;;30.60;34.10;;;;;;5028820;28;20705;-65
2022/08/07 12:52:27;;;;;;;2.53;1.50;;;29.80;34.70;;;;;;5016907;28;20225;-65
2022/08/07 12:55:12;;;;;;;2.05;1.55;;;29.40;36.40;;;;;;5034189;28;20400;-64
2022/08/07 12:57:39;;;;;;;1.50;1.33;;;29.00;35.80;;;;;;5006002;28;20325;-64
2022/08/07 13:00:08;;;;;;;2.92;1.13;;;29.20;37.20;;;;;;5036841;28;20709;-69
2022/08/07 13:03:09;;;;;;;1.30;1.08;;;29.00;35.00;;;;;;5008350;28;20215;-67
2022/08/07 13:05:37;;;;;;;1.30;1.23;;;28.80;38.40;;;;;;5011542;28;20184;-64
2022/08/07 13:08:39;;;;;;;1.08;0.98;;;29.90;36.40;;;;;;5014151;28;20206;-65
2022/08/07 13:11:29;;;;;;;2.63;1.67;;;32.10;33.90;;;;;;5030133;28;20262;-65
2022/08/07 13:14:08;;;;;;;1.38;1.27;;;33.90;33.20;;;;;;5031550;28;20202;-65
2022/08/07 13:16:50;;;;;;;2.22;1.33;;;34.10;30.10;;;;;;5031973;28;20554;-65
2022/08/07 13:19:29;;;;;;;1.80;1.25;;;33.10;31.50;;;;;;5031541;28;20237;-65
2022/08/07 13:22:29;;;;;;;1.60;1.50;;;31.90;31.40;;;;;;5032693;28;20217;-65
2022/08/07 13:25:00;;;;;;;2.17;1.35;;;30.70;32.60;;;;;;5010069;28;20600;-65